createdAt,value
2024-01-09T00:00:24.170Z,52.20
2024-01-09T00:02:53.219Z,52.20
2024-01-09T00:05:21.683Z,52.30
2024-01-09T00:07:50.038Z,52.10
2024-01-09T00:10:18.821Z,52.00
2024-01-09T00:12:47.130Z,52.20
2024-01-09T00:15:17.386Z,52.20
2024-01-09T00:17:46.329Z,52.20
2024-01-09T00:20:15.945Z,52.20
2024-01-09T00:22:44.865Z,52.20
2024-01-09T00:25:13.619Z,52.10
2024-01-09T00:27:42.385Z,52.10
2024-01-09T00:30:12.483Z,52.20
2024-01-09T00:32:48.341Z,52.10
2024-01-09T00:35:17.547Z,52.10
2024-01-09T00:37:46.365Z,52.10
2024-01-09T00:40:15.073Z,52.10
2024-01-09T00:42:43.435Z,52.10
2024-01-09T00:45:12.788Z,52.20
2024-01-09T00:47:42.881Z,52.30
2024-01-09T00:50:12.063Z,52.30
2024-01-09T00:52:40.567Z,52.30
2024-01-09T00:55:09.640Z,52.40
2024-01-09T00:57:39.058Z,52.20
2024-01-09T01:00:09.368Z,52.10
2024-01-09T01:02:37.887Z,52.10
2024-01-09T01:05:08.971Z,52.20
2024-01-09T01:07:37.461Z,52.30
2024-01-09T01:10:06.840Z,52.30
2024-01-09T01:12:37.392Z,52.10
2024-01-09T01:15:07.896Z,52.10
2024-01-09T01:17:37.330Z,52.10
2024-01-09T01:20:09.197Z,52.10
2024-01-09T01:22:37.944Z,52.10
2024-01-09T01:25:07.965Z,52.10
2024-01-09T01:27:36.364Z,52.10
2024-01-09T01:30:06.058Z,51.80
2024-01-09T01:32:34.664Z,51.90
2024-01-09T01:35:03.375Z,51.90
2024-01-09T01:37:33.295Z,52.00
2024-01-09T01:40:01.794Z,52.00
2024-01-09T01:42:30.198Z,52.00
2024-01-09T01:44:59.565Z,52.00
2024-01-09T01:47:28.340Z,52.00
2024-01-09T01:49:57.521Z,52.10
2024-01-09T01:52:26.459Z,51.70
2024-01-09T01:54:56.461Z,51.80
2024-01-09T01:57:24.908Z,51.90
2024-01-09T01:59:55.035Z,51.90
2024-01-09T02:02:24.188Z,51.80
2024-01-09T02:04:52.802Z,51.90
2024-01-09T02:07:22.792Z,51.90
2024-01-09T02:09:54.303Z,51.90
2024-01-09T02:12:24.657Z,51.90
2024-01-09T02:14:53.189Z,51.90
2024-01-09T02:17:21.748Z,51.90
2024-01-09T02:19:50.219Z,51.80
2024-01-09T02:22:18.594Z,51.90
2024-01-09T02:24:47.042Z,52.50
2024-01-09T02:27:22.544Z,51.90
2024-01-09T02:29:53.242Z,51.90
2024-01-09T02:32:23.197Z,51.80
2024-01-09T02:34:53.135Z,51.90
2024-01-09T02:37:21.790Z,51.90
2024-01-09T02:39:50.547Z,52.00
2024-01-09T02:42:19.072Z,51.90
2024-01-09T02:44:47.667Z,52.00
2024-01-09T02:47:17.833Z,51.90
2024-01-09T02:49:46.441Z,51.90
2024-01-09T02:52:14.894Z,51.90
2024-01-09T02:54:43.333Z,51.90
2024-01-09T02:57:12.258Z,51.90
2024-01-09T02:59:41.109Z,51.90
2024-01-09T03:02:09.645Z,51.90
2024-01-09T03:04:39.591Z,51.90
2024-01-09T03:07:08.394Z,51.90
2024-01-09T03:09:38.859Z,52.00
2024-01-09T03:12:08.266Z,52.60
2024-01-09T03:14:39.648Z,52.00
2024-01-09T03:17:08.115Z,52.10
2024-01-09T03:19:37.972Z,51.90
2024-01-09T03:22:06.625Z,52.00
2024-01-09T03:24:35.342Z,52.10
2024-01-09T03:27:04.068Z,52.10
2024-01-09T03:29:32.672Z,52.00
2024-01-09T03:32:01.858Z,51.90
2024-01-09T03:34:30.463Z,52.00
2024-01-09T03:37:00.244Z,52.00
2024-01-09T03:39:28.654Z,52.00
2024-01-09T03:41:57.158Z,52.00
2024-01-09T03:44:26.048Z,52.10
2024-01-09T03:46:54.584Z,52.10
2024-01-09T03:49:23.324Z,52.10
2024-01-09T03:51:51.963Z,52.00
2024-01-09T03:54:21.995Z,52.20
2024-01-09T03:56:50.733Z,52.30
2024-01-09T03:59:19.568Z,52.20
2024-01-09T04:01:48.261Z,52.10
2024-01-09T04:04:16.898Z,52.00
2024-01-09T04:06:45.596Z,52.20
2024-01-09T04:09:14.571Z,52.10
2024-01-09T04:11:46.108Z,52.10
2024-01-09T04:14:15.595Z,52.10
2024-01-09T04:16:48.021Z,52.10
2024-01-09T04:19:16.503Z,52.20
2024-01-09T04:21:45.225Z,52.10
2024-01-09T04:24:13.740Z,52.10
2024-01-09T04:26:42.513Z,52.10
2024-01-09T04:29:12.700Z,52.10
2024-01-09T04:31:41.165Z,52.20
2024-01-09T04:34:10.386Z,52.20
2024-01-09T04:36:38.805Z,52.20
2024-01-09T04:39:07.242Z,52.30
2024-01-09T04:41:35.751Z,52.30
2024-01-09T04:44:04.851Z,52.40
2024-01-09T04:46:34.732Z,52.50
2024-01-09T04:49:05.137Z,52.50
2024-01-09T04:51:33.643Z,52.50
2024-01-09T04:54:02.063Z,52.40
2024-01-09T04:56:30.715Z,52.40
2024-01-09T04:59:00.238Z,52.40
2024-01-09T05:01:29.489Z,52.40
2024-01-09T05:03:59.262Z,52.40
2024-01-09T05:06:28.112Z,52.30
2024-01-09T05:08:56.607Z,52.20
2024-01-09T05:11:25.142Z,52.20
2024-01-09T05:13:53.664Z,52.20
2024-01-09T05:16:22.159Z,52.20
2024-01-09T05:18:50.937Z,52.20
2024-01-09T05:21:20.981Z,52.30
2024-01-09T05:23:49.565Z,52.30
2024-01-09T05:26:19.934Z,52.30
2024-01-09T05:28:48.996Z,52.30
2024-01-09T05:31:17.506Z,52.40
2024-01-09T05:33:46.689Z,52.40
2024-01-09T05:36:19.307Z,52.40
2024-01-09T05:38:49.213Z,52.40
2024-01-09T05:41:21.899Z,52.20
2024-01-09T05:43:50.627Z,52.30
2024-01-09T05:46:19.546Z,52.30
2024-01-09T05:48:48.405Z,52.30
2024-01-09T05:51:17.289Z,52.30
2024-01-09T05:53:51.432Z,52.20
2024-01-09T05:56:20.504Z,52.20
2024-01-09T05:58:49.037Z,52.20
2024-01-09T06:01:18.268Z,52.20
2024-01-09T06:03:46.835Z,52.30
2024-01-09T06:06:15.537Z,52.30
2024-01-09T06:08:44.590Z,52.40
2024-01-09T06:11:14.493Z,52.40
2024-01-09T06:13:43.015Z,52.90
2024-01-09T06:16:12.099Z,52.40
2024-01-09T06:18:40.657Z,52.40
2024-01-09T06:21:09.519Z,52.40
2024-01-09T06:23:37.929Z,52.30
2024-01-09T06:26:06.479Z,52.30
2024-01-09T06:28:37.052Z,52.20
2024-01-09T06:31:05.890Z,52.30
2024-01-09T06:33:34.593Z,52.30
2024-01-09T06:36:03.155Z,52.30
2024-01-09T06:38:31.610Z,52.40
2024-01-09T06:41:01.115Z,52.40
2024-01-09T06:43:32.191Z,52.30
2024-01-09T06:46:02.105Z,52.40
2024-01-09T06:48:33.565Z,52.40
2024-01-09T06:51:02.191Z,52.40
2024-01-09T06:53:32.581Z,52.40
2024-01-09T06:56:01.333Z,52.40
2024-01-09T06:58:29.663Z,52.30
2024-01-09T07:00:58.572Z,52.30
2024-01-09T07:03:28.428Z,52.40
2024-01-09T07:05:56.884Z,52.40
2024-01-09T07:08:25.488Z,52.50
2024-01-09T07:10:54.257Z,52.50
2024-01-09T07:13:23.194Z,52.40
2024-01-09T07:15:52.135Z,52.40
2024-01-09T07:18:20.862Z,52.50
2024-01-09T07:20:51.007Z,52.40
2024-01-09T07:23:20.720Z,52.40
2024-01-09T07:25:49.811Z,52.90
2024-01-09T07:28:18.367Z,52.40
2024-01-09T07:30:47.183Z,52.30
2024-01-09T07:33:15.937Z,52.30
2024-01-09T07:35:44.513Z,52.40
2024-01-09T07:38:14.510Z,53.00
2024-01-09T07:40:43.515Z,52.40
2024-01-09T07:43:12.028Z,53.00
2024-01-09T07:45:40.322Z,52.50
2024-01-09T07:48:09.413Z,52.30
2024-01-09T07:50:38.064Z,52.30
2024-01-09T07:53:06.535Z,52.70
2024-01-09T07:55:36.496Z,52.30
2024-01-09T07:58:07.135Z,52.90
2024-01-09T08:00:35.659Z,52.40
2024-01-09T08:03:07.213Z,52.40
2024-01-09T08:05:36.393Z,52.50
2024-01-09T08:08:05.788Z,52.50
2024-01-09T08:10:35.649Z,52.40
2024-01-09T08:13:04.299Z,52.50
2024-01-09T08:15:32.661Z,52.50
2024-01-09T08:18:01.175Z,52.50
2024-01-09T08:20:30.227Z,52.60
2024-01-09T08:22:59.157Z,52.60
2024-01-09T08:25:27.992Z,52.50
2024-01-09T08:27:57.938Z,52.60
2024-01-09T08:30:26.423Z,52.50
2024-01-09T08:32:55.028Z,52.50
2024-01-09T08:35:23.664Z,52.60
2024-01-09T08:37:52.097Z,52.60
2024-01-09T08:40:20.630Z,52.50
2024-01-09T08:42:49.060Z,52.60
2024-01-09T08:45:19.937Z,52.60
2024-01-09T08:47:48.389Z,52.60
2024-01-09T08:50:17.190Z,52.60
2024-01-09T08:52:46.336Z,52.60
2024-01-09T08:55:14.716Z,52.50
2024-01-09T08:57:43.758Z,52.60
2024-01-09T09:00:14.422Z,52.60
2024-01-09T09:02:44.472Z,52.60
2024-01-09T09:05:13.311Z,52.60
2024-01-09T09:07:41.777Z,52.60
2024-01-09T09:10:10.349Z,52.60
2024-01-09T09:12:38.943Z,52.50
2024-01-09T09:15:08.426Z,52.40
2024-01-09T09:17:37.057Z,52.50
2024-01-09T09:20:08.607Z,52.50
2024-01-09T09:22:37.167Z,52.40
2024-01-09T09:25:06.983Z,52.40
2024-01-09T09:27:35.867Z,52.40
2024-01-09T09:30:06.336Z,52.20
2024-01-09T09:32:35.304Z,52.40
2024-01-09T09:35:05.018Z,52.40
2024-01-09T09:37:35.858Z,52.60
2024-01-09T09:40:04.766Z,52.50
2024-01-09T09:42:33.791Z,52.60
2024-01-09T09:45:03.895Z,52.70
2024-01-09T09:47:34.025Z,52.60
2024-01-09T09:50:02.590Z,52.60
2024-01-09T09:52:34.706Z,52.50
2024-01-09T09:55:03.275Z,52.50
2024-01-09T09:57:31.844Z,52.50
2024-01-09T10:00:00.468Z,52.50
2024-01-09T10:02:31.775Z,52.50
2024-01-09T10:05:11.509Z,52.50
2024-01-09T10:07:49.706Z,52.40
2024-01-09T10:10:21.991Z,52.50
2024-01-09T10:12:50.978Z,52.50
2024-01-09T10:15:19.618Z,52.30
2024-01-09T10:17:49.079Z,52.30
2024-01-09T10:20:17.685Z,52.80
2024-01-09T10:22:49.217Z,52.30
2024-01-09T10:25:19.127Z,52.20
2024-01-09T10:27:48.525Z,52.20
2024-01-09T10:30:17.645Z,52.30
2024-01-09T10:32:48.466Z,52.10
2024-01-09T10:35:16.883Z,52.10
2024-01-09T10:37:47.455Z,52.10
2024-01-09T10:40:16.674Z,51.90
2024-01-09T10:42:49.036Z,51.90
2024-01-09T10:45:20.528Z,52.10
2024-01-09T10:47:50.501Z,51.70
2024-01-09T10:50:20.380Z,51.80
2024-01-09T10:52:51.861Z,51.90
2024-01-09T10:55:22.829Z,52.10
2024-01-09T10:57:52.146Z,52.10
2024-01-09T11:00:21.619Z,52.00
2024-01-09T11:02:50.300Z,51.90
2024-01-09T11:05:19.290Z,51.90
2024-01-09T11:07:53.347Z,51.90
2024-01-09T11:10:23.644Z,51.90
2024-01-09T11:12:54.558Z,51.80
2024-01-09T11:15:27.893Z,51.70
2024-01-09T11:18:03.192Z,51.60
2024-01-09T11:20:32.866Z,51.40
2024-01-09T11:23:02.780Z,51.40
2024-01-09T11:25:32.383Z,51.30
2024-01-09T11:28:01.774Z,51.20
2024-01-09T11:30:36.929Z,51.30
2024-01-09T11:33:30.211Z,50.90
2024-01-09T11:36:06.122Z,50.90
2024-01-09T11:38:36.551Z,51.10
2024-01-09T11:41:06.491Z,51.10
2024-01-09T11:44:02.884Z,51.20
2024-01-09T11:46:35.289Z,51.30
2024-01-09T11:49:06.135Z,51.00
2024-01-09T11:51:36.418Z,51.10
2024-01-09T11:54:10.139Z,51.00
2024-01-09T11:56:39.689Z,51.00
2024-01-09T11:59:08.225Z,50.90
2024-01-09T12:01:37.139Z,51.00
2024-01-09T12:04:06.325Z,50.70
2024-01-09T12:06:34.722Z,50.80
2024-01-09T12:09:03.860Z,51.40
2024-01-09T12:11:33.963Z,50.80
2024-01-09T12:14:02.961Z,50.70
2024-01-09T12:16:33.780Z,50.70
2024-01-09T12:19:03.750Z,50.80
2024-01-09T12:21:34.903Z,50.80
2024-01-09T12:26:40.041Z,50.60
2024-01-09T12:29:09.100Z,50.40
2024-01-09T12:31:37.649Z,50.50
2024-01-09T12:34:06.602Z,50.40
2024-01-09T12:36:35.756Z,50.30
2024-01-09T12:39:04.689Z,50.40
2024-01-09T12:41:33.385Z,50.40
2024-01-09T12:44:10.840Z,50.10
2024-01-09T12:46:39.419Z,49.80
2024-01-09T12:49:10.078Z,50.20
2024-01-09T12:51:39.011Z,50.00
2024-01-09T12:54:07.746Z,49.70
2024-01-09T12:56:36.619Z,49.60
2024-01-09T12:59:05.307Z,49.80
2024-01-09T13:01:35.216Z,49.80
2024-01-09T13:04:03.686Z,49.90
2024-01-09T13:06:32.277Z,49.90
2024-01-09T13:09:00.914Z,49.90
2024-01-09T13:11:29.423Z,49.70
2024-01-09T13:14:00.215Z,49.80
2024-01-09T13:16:28.662Z,49.70
2024-01-09T13:18:58.639Z,49.60
2024-01-09T13:21:27.212Z,49.60
2024-01-09T13:26:24.837Z,49.80
2024-01-09T13:31:24.895Z,49.50
2024-01-09T13:33:53.849Z,49.50
2024-01-09T13:36:24.409Z,49.20
2024-01-09T13:38:53.005Z,49.20
2024-01-09T13:41:21.640Z,49.10
2024-01-09T13:43:50.373Z,49.20
2024-01-09T13:46:19.156Z,48.80
2024-01-09T13:48:48.271Z,48.40
2024-01-09T13:53:52.913Z,48.50
2024-01-09T13:56:21.505Z,48.50
2024-01-09T13:58:50.135Z,48.60
2024-01-09T14:01:27.169Z,48.70
2024-01-09T14:04:03.974Z,48.70
2024-01-09T14:06:32.745Z,48.70
2024-01-09T14:09:02.844Z,48.80
2024-01-09T14:11:31.732Z,48.80
2024-01-09T14:14:00.608Z,48.50
2024-01-09T14:16:29.412Z,48.40
2024-01-09T14:18:58.910Z,48.50
2024-01-09T14:21:27.610Z,48.60
2024-01-09T14:23:56.026Z,48.60
2024-01-09T14:26:26.842Z,48.50
2024-01-09T14:28:56.551Z,48.30
2024-01-09T14:31:25.293Z,48.10
2024-01-09T14:33:53.852Z,48.30
2024-01-09T14:36:22.575Z,48.20
2024-01-09T14:38:51.165Z,48.30
2024-01-09T14:41:19.791Z,48.10
2024-01-09T14:43:49.678Z,48.20
2024-01-09T14:46:19.122Z,48.20
2024-01-09T14:48:47.749Z,48.30
2024-01-09T14:51:16.541Z,48.00
2024-01-09T14:53:45.433Z,48.10
2024-01-09T14:56:19.090Z,48.20
2024-01-09T14:58:49.046Z,48.40
2024-01-09T15:01:17.751Z,48.40
2024-01-09T15:03:47.180Z,48.30
2024-01-09T15:06:16.034Z,48.40
2024-01-09T15:08:48.396Z,48.30
2024-01-09T15:11:17.494Z,48.50
2024-01-09T15:13:50.743Z,48.00
2024-01-09T15:16:19.354Z,48.10
2024-01-09T15:18:51.303Z,48.00
2024-01-09T15:21:19.888Z,47.60
2024-01-09T15:23:50.453Z,47.80
2024-01-09T15:26:20.084Z,48.10
2024-01-09T15:28:49.959Z,48.20
2024-01-09T15:31:22.064Z,48.20
2024-01-09T15:33:53.319Z,48.20
2024-01-09T15:36:21.751Z,48.20
2024-01-09T15:38:50.387Z,48.20
2024-01-09T15:41:21.549Z,48.00
2024-01-09T15:43:51.579Z,48.00
2024-01-09T15:46:25.106Z,48.00
2024-01-09T15:48:54.914Z,47.90
2024-01-09T15:51:24.117Z,47.90
2024-01-09T15:53:52.690Z,47.60
2024-01-09T15:56:21.915Z,47.60
2024-01-09T15:58:52.678Z,47.80
2024-01-09T16:01:21.839Z,47.80
2024-01-09T16:03:54.852Z,47.60
2024-01-09T16:06:24.195Z,47.80
2024-01-09T16:08:53.184Z,47.80
2024-01-09T16:11:22.188Z,47.60
2024-01-09T16:13:52.357Z,47.50
2024-01-09T16:16:23.492Z,47.70
2024-01-09T16:18:54.759Z,47.80
2024-01-09T16:21:23.230Z,47.80
2024-01-09T16:23:52.271Z,47.80
2024-01-09T16:26:20.702Z,47.90
2024-01-09T16:28:49.160Z,48.00
2024-01-09T16:31:20.419Z,47.90
2024-01-09T16:33:49.197Z,47.80
2024-01-09T16:36:18.042Z,47.90
2024-01-09T16:38:46.541Z,47.90
2024-01-09T16:41:15.598Z,47.90
2024-01-09T16:43:44.117Z,47.90
2024-01-09T16:46:13.449Z,48.00
2024-01-09T16:48:48.883Z,48.00
2024-01-09T16:51:21.482Z,48.10
2024-01-09T16:53:51.085Z,48.20
2024-01-09T16:56:24.368Z,48.20
2024-01-09T16:58:54.165Z,48.00
2024-01-09T17:01:23.918Z,48.20
2024-01-09T17:03:54.139Z,48.30
2024-01-09T17:06:24.226Z,48.10
2024-01-09T17:08:53.735Z,48.10
2024-01-09T17:11:22.707Z,48.20
2024-01-09T17:13:53.540Z,48.20
2024-01-09T17:16:23.162Z,48.20
2024-01-09T17:18:53.195Z,48.20
2024-01-09T17:21:21.804Z,48.00
2024-01-09T17:23:50.672Z,48.10
2024-01-09T17:26:19.534Z,48.10
2024-01-09T17:28:48.105Z,48.10
2024-01-09T17:31:16.521Z,48.20
2024-01-09T17:33:45.001Z,48.30
2024-01-09T17:36:15.124Z,48.20
2024-01-09T17:38:45.618Z,48.20
2024-01-09T17:41:14.596Z,48.10
2024-01-09T17:43:43.177Z,48.10
2024-01-09T17:46:11.843Z,48.20
2024-01-09T17:48:40.474Z,48.10
2024-01-09T17:51:09.197Z,48.10
2024-01-09T17:53:39.106Z,48.10
2024-01-09T17:56:08.393Z,48.10
2024-01-09T17:58:39.123Z,48.10
2024-01-09T18:01:08.551Z,48.10
2024-01-09T18:03:37.054Z,48.10
2024-01-09T18:06:05.893Z,48.10
2024-01-09T18:08:36.339Z,48.10
2024-01-09T18:11:06.724Z,48.20
2024-01-09T18:13:35.203Z,48.30
2024-01-09T18:16:04.450Z,48.70
2024-01-09T18:18:34.807Z,48.40
2024-01-09T18:21:06.199Z,48.30
2024-01-09T18:23:35.380Z,48.10
2024-01-09T18:26:11.062Z,48.40
2024-01-09T18:28:43.740Z,48.30
2024-01-09T18:31:13.909Z,48.30
2024-01-09T18:33:45.104Z,48.50
2024-01-09T18:36:13.616Z,48.40
2024-01-09T18:38:42.100Z,48.40
2024-01-09T18:41:12.179Z,48.50
2024-01-09T18:43:41.293Z,48.50
2024-01-09T18:46:10.129Z,48.60
2024-01-09T18:48:38.719Z,48.70
2024-01-09T18:51:07.548Z,48.50
2024-01-09T18:53:36.498Z,48.60
2024-01-09T18:56:05.197Z,48.30
2024-01-09T18:58:35.213Z,48.40
2024-01-09T19:01:05.208Z,48.30
2024-01-09T19:03:34.428Z,48.50
2024-01-09T19:06:04.414Z,48.50
2024-01-09T19:08:32.880Z,48.60
2024-01-09T19:11:02.516Z,48.60
2024-01-09T19:13:31.328Z,48.70
2024-01-09T19:16:01.982Z,48.70
2024-01-09T19:18:30.660Z,48.70
2024-01-09T19:20:59.145Z,48.60
2024-01-09T19:23:28.210Z,48.70
2024-01-09T19:25:58.396Z,48.80
2024-01-09T19:28:27.115Z,48.70
2024-01-09T19:30:55.746Z,48.80
2024-01-09T19:33:25.797Z,48.90
2024-01-09T19:35:54.330Z,48.90
2024-01-09T19:38:23.105Z,48.90
2024-01-09T19:40:51.948Z,48.90
2024-01-09T19:43:25.808Z,48.90
2024-01-09T19:45:54.548Z,48.90
2024-01-09T19:48:23.112Z,49.00
2024-01-09T19:50:52.987Z,49.00
2024-01-09T19:53:21.735Z,49.10
2024-01-09T19:55:50.281Z,49.00
2024-01-09T19:58:20.154Z,48.90
2024-01-09T20:00:48.632Z,48.90
2024-01-09T20:03:17.167Z,48.80
2024-01-09T20:05:45.756Z,48.80
2024-01-09T20:08:15.717Z,48.70
2024-01-09T20:10:44.279Z,48.60
2024-01-09T20:13:13.298Z,48.70
2024-01-09T20:15:41.726Z,48.60
2024-01-09T20:18:10.470Z,48.80
2024-01-09T20:20:38.962Z,48.80
2024-01-09T20:23:08.498Z,48.70
2024-01-09T20:25:39.794Z,48.80
2024-01-09T20:28:08.603Z,48.80
2024-01-09T20:30:37.189Z,48.90
2024-01-09T20:33:06.444Z,48.90
2024-01-09T20:35:35.654Z,48.90
2024-01-09T20:38:05.806Z,48.90
2024-01-09T20:40:34.830Z,49.00
2024-01-09T20:43:04.997Z,48.90
2024-01-09T20:45:33.754Z,48.80
2024-01-09T20:48:03.666Z,48.90
2024-01-09T20:50:33.378Z,49.00
2024-01-09T20:53:02.087Z,49.00
2024-01-09T20:55:31.234Z,49.00
2024-01-09T20:57:59.755Z,49.00
2024-01-09T21:00:29.719Z,49.10
2024-01-09T21:02:58.344Z,49.70
2024-01-09T21:05:27.465Z,49.00
2024-01-09T21:07:57.565Z,49.00
2024-01-09T21:10:26.186Z,49.10
2024-01-09T21:12:54.757Z,49.10
2024-01-09T21:15:23.928Z,49.10
2024-01-09T21:17:54.830Z,49.10
2024-01-09T21:20:23.508Z,49.00
2024-01-09T21:22:52.526Z,49.10
2024-01-09T21:25:21.444Z,49.10
2024-01-09T21:27:50.634Z,49.00
2024-01-09T21:30:19.299Z,49.00
2024-01-09T21:32:48.641Z,49.00
2024-01-09T21:35:18.576Z,49.00
2024-01-09T21:37:48.436Z,49.00
2024-01-09T21:40:17.021Z,49.00
2024-01-09T21:42:46.518Z,49.00
2024-01-09T21:45:33.304Z,49.00
2024-01-09T21:48:22.208Z,49.00
2024-01-09T21:51:12.304Z,49.10
2024-01-09T21:53:40.685Z,49.10
2024-01-09T21:56:09.380Z,49.00
2024-01-09T21:58:37.779Z,49.00
2024-01-09T22:01:06.470Z,49.60
2024-01-09T22:03:35.068Z,49.10
2024-01-09T22:06:04.061Z,49.10
2024-01-09T22:08:34.001Z,48.90
2024-01-09T22:11:04.729Z,49.10
2024-01-09T22:13:34.029Z,49.00
2024-01-09T22:16:02.471Z,48.90
2024-01-09T22:18:31.036Z,48.80
2024-01-09T22:20:59.773Z,48.80
2024-01-09T22:23:28.236Z,48.70
2024-01-09T22:25:58.166Z,48.80
2024-01-09T22:28:26.737Z,48.80
2024-01-09T22:30:56.013Z,48.90
2024-01-09T22:33:24.822Z,48.80
2024-01-09T22:35:53.370Z,48.80
2024-01-09T22:38:21.946Z,48.80
2024-01-09T22:40:50.535Z,48.90
2024-01-09T22:43:20.373Z,48.90
2024-01-09T22:45:49.320Z,48.90
2024-01-09T22:48:17.761Z,48.90
2024-01-09T22:50:46.504Z,48.90
2024-01-09T22:53:15.691Z,48.90
2024-01-09T22:55:45.553Z,48.90
2024-01-09T22:58:14.226Z,48.90
2024-01-09T23:00:44.190Z,48.90
2024-01-09T23:03:12.754Z,48.90
2024-01-09T23:05:41.475Z,48.90
2024-01-09T23:08:10.177Z,48.90
2024-01-09T23:10:38.727Z,48.90
2024-01-09T23:13:07.140Z,48.90
2024-01-09T23:15:36.221Z,48.90
2024-01-09T23:18:07.345Z,48.80
2024-01-09T23:20:36.337Z,48.90
2024-01-09T23:23:06.207Z,48.70
2024-01-09T23:25:34.832Z,48.70
2024-01-09T23:28:03.476Z,48.80
2024-01-09T23:30:32.085Z,48.80
2024-01-09T23:33:01.080Z,48.80
2024-01-09T23:35:32.086Z,48.90
2024-01-09T23:38:00.690Z,48.90
2024-01-09T23:40:31.660Z,48.90
2024-01-09T23:43:00.550Z,48.80
2024-01-09T23:45:29.009Z,48.80
2024-01-09T23:47:57.585Z,48.90
2024-01-09T23:50:26.240Z,48.70
2024-01-09T23:52:56.127Z,48.70
2024-01-09T23:55:24.903Z,48.70
2024-01-09T23:57:53.354Z,48.60
